Time;durP1;ratioP1;P1;durP2;ratioP2;P2;SDS_P1;SDS_P2;PMS_P1;PMS_P2;Temp;Humidity;BMP_temperature;BMP_pressure;BME280_temperature;BME280_humidity;BME280_pressure;Samples;Min_cycle;Max_cycle;Signal;HPM_P1;HPM_P2
2023/05/04 00:00:04;;;;;;;0.40;0.40;;;;;;;5.73;56.99;101656.41;5006958;28;20026;-66
2023/05/04 00:02:30;;;;;;;0.40;0.40;;;;;;;5.70;57.16;101660.63;5006881;28;20075;-66
2023/05/04 00:04:56;;;;;;;0.40;0.40;;;;;;;5.65;56.87;101658.75;5006390;28;20022;-66
2023/05/04 00:07:21;;;;;;;0.40;0.40;;;;;;;5.62;56.83;101659.53;5006617;28;20102;-66
2023/05/04 00:09:47;;;;;;;0.40;0.40;;;;;;;5.62;57.11;101663.81;5006725;28;20026;-64
2023/05/04 00:12:13;;;;;;;0.50;0.50;;;;;;;5.57;57.28;101666.22;5006687;28;20018;-65
2023/05/04 00:14:38;;;;;;;0.40;0.40;;;;;;;5.51;57.21;101668.63;5006104;28;20018;-65
2023/05/04 00:17:05;;;;;;;1.05;1.05;;;;;;;5.49;57.08;101670.25;5006709;28;20101;-66
2023/05/04 00:19:39;;;;;;;0.50;0.50;;;;;;;5.43;56.83;101669.22;5006628;28;20034;-66
2023/05/04 00:22:04;;;;;;;2.17;2.03;;;;;;;5.42;56.68;101670.06;5006626;28;20037;-66
2023/05/04 00:24:29;;;;;;;0.50;0.50;;;;;;;5.36;57.12;101671.53;5006455;28;20121;-65
2023/05/04 00:26:55;;;;;;;0.45;0.45;;;;;;;5.27;57.36;101659.25;5006784;28;20018;-66
2023/05/04 00:29:21;;;;;;;0.50;0.50;;;;;;;5.25;57.44;101672.06;5006933;28;20050;-65
2023/05/04 00:31:46;;;;;;;0.43;0.43;;;;;;;5.19;57.30;101666.72;5006976;28;20029;-66
2023/05/04 00:34:11;;;;;;;0.45;0.45;;;;;;;5.19;57.63;101674.44;5006822;28;20026;-66
2023/05/04 00:36:37;;;;;;;0.50;0.50;;;;;;;5.11;57.75;101674.16;5006886;28;20018;-65
2023/05/04 00:39:02;;;;;;;0.50;0.50;;;;;;;5.02;57.93;101660.94;5005558;28;20025;-66
2023/05/04 00:41:28;;;;;;;0.50;0.50;;;;;;;4.99;57.97;101668.56;5006593;28;20050;-66
2023/05/04 00:43:53;;;;;;;0.50;0.50;;;;;;;4.94;58.19;101663.25;5006754;28;20543;-66
2023/05/04 00:46:19;;;;;;;2.15;2.05;;;;;;;4.86;58.32;101660.41;5006465;28;20022;-66
2023/05/04 00:48:48;;;;;;;0.40;0.40;;;;;;;4.87;58.19;101675.06;5006435;28;20033;-66
2023/05/04 00:51:15;;;;;;;0.50;0.50;;;;;;;4.84;58.39;101669.78;5006504;28;20053;-65
2023/05/04 00:53:41;;;;;;;0.50;0.50;;;;;;;4.81;58.63;101669.66;5006487;28;20026;-65
2023/05/04 00:56:07;;;;;;;0.47;0.47;;;;;;;4.74;58.79;101670.28;5006389;28;20045;-66
2023/05/04 00:58:33;;;;;;;0.50;0.50;;;;;;;4.72;58.83;101677.94;5006094;28;20153;-66
2023/05/04 01:01:00;;;;;;;0.50;0.50;;;;;;;4.63;58.92;101665.63;5006318;28;20553;-65
2023/05/04 01:03:26;;;;;;;0.47;0.47;;;;;;;4.61;59.14;101671.53;5006137;28;20501;-66
2023/05/04 01:06:14;;;;;;;4.57;3.67;;;;;;;4.58;59.19;101680.88;5006169;28;20065;-66
2023/05/04 01:08:48;;;;;;;0.60;0.60;;;;;;;4.51;59.25;101672.88;5005617;28;20053;-65
2023/05/04 01:11:26;;;;;;;1.05;1.05;;;;;;;4.51;59.19;101680.59;5005960;28;20073;-65
2023/05/04 01:13:53;;;;;;;0.50;0.50;;;;;;;4.49;59.36;101679.69;5006300;28;20048;-65
2023/05/04 01:16:19;;;;;;;0.40;0.40;;;;;;;4.47;59.38;101692.47;5006343;28;20019;-65
2023/05/04 01:18:45;;;;;;;0.50;0.50;;;;;;;4.46;59.25;101691.59;5006001;28;20036;-65
2023/05/04 01:21:10;;;;;;;0.40;0.40;;;;;;;4.42;59.22;101687.16;5006061;28;20054;-65
2023/05/04 01:23:36;;;;;;;0.40;0.40;;;;;;;4.41;59.24;101693.09;5005985;28;20026;-67
2023/05/04 01:26:04;;;;;;;0.50;0.50;;;;;;;4.40;59.36;101695.63;5005355;28;20049;-65
2023/05/04 01:28:44;;;;;;;0.40;0.40;;;;;;;4.39;59.25;101694.75;5005636;28;20038;-67
2023/05/04 01:31:13;;;;;;;0.50;0.50;;;;;;;4.36;59.23;101694.63;5004539;28;20037;-65
2023/05/04 01:33:38;;;;;;;0.50;0.50;;;;;;;4.34;59.59;101691.13;5005858;28;20022;-66
2023/05/04 01:36:05;;;;;;;0.40;0.40;;;;;;;4.38;59.34;101697.28;5005673;28;20042;-66
2023/05/04 01:38:30;;;;;;;0.40;0.40;;;;;;;4.34;59.47;101696.28;5005633;28;20054;-66
2023/05/04 01:40:56;;;;;;;0.50;0.50;;;;;;;4.33;59.43;101694.50;5005295;28;20065;-65
2023/05/04 01:43:22;;;;;;;0.40;0.40;;;;;;;4.33;59.17;101697.06;5005527;28;20077;-66
2023/05/04 01:45:47;;;;;;;0.40;0.40;;;;;;;4.32;59.13;101697.91;5004235;28;20033;-65
2023/05/04 01:48:12;;;;;;;0.50;0.50;;;;;;;4.32;59.05;101695.31;5005391;28;20086;-66
2023/05/04 01:50:38;;;;;;;0.50;0.50;;;;;;;4.32;59.22;101703.03;5005512;28;20029;-65
2023/05/04 01:53:03;;;;;;;0.50;0.50;;;;;;;4.28;59.03;101696.03;5005474;28;20117;-65
2023/05/04 01:55:29;;;;;;;0.50;0.50;;;;;;;4.28;59.47;101702.03;5005637;28;20018;-65
2023/05/04 01:57:54;;;;;;;0.50;0.50;;;;;;;4.26;59.60;101702.81;5005217;28;20459;-65
2023/05/04 02:00:19;;;;;;;0.50;0.50;;;;;;;4.24;59.69;101709.56;5005422;28;20031;-65
2023/05/04 02:02:45;;;;;;;0.40;0.40;;;;;;;4.27;59.91;101710.56;5005535;28;20026;-65
2023/05/04 02:05:10;;;;;;;0.50;0.50;;;;;;;4.25;59.98;101711.34;5005386;28;20030;-66
2023/05/04 02:07:36;;;;;;;0.50;0.50;;;;;;;4.20;59.87;101703.47;5005512;28;20054;-67
2023/05/04 02:10:02;;;;;;;0.50;0.50;;;;;;;4.26;60.26;101718.22;5005504;28;20057;-64
2023/05/04 02:12:27;;;;;;;0.52;0.52;;;;;;;4.24;60.29;101722.44;5005777;28;20018;-65
2023/05/04 02:14:53;;;;;;;0.50;0.50;;;;;;;4.20;60.34;101721.44;5005470;28;20033;-66
2023/05/04 02:17:18;;;;;;;0.43;0.43;;;;;;;4.15;60.35;101723.84;5005680;28;20026;-66
2023/05/04 02:19:44;;;;;;;0.50;0.50;;;;;;;4.08;60.47;101714.13;5005698;28;20032;-66
2023/05/04 02:22:09;;;;;;;0.50;0.50;;;;;;;4.10;60.47;101725.34;5005378;28;20026;-65
2023/05/04 02:24:35;;;;;;;0.50;0.50;;;;;;;4.03;60.55;101724.22;5005262;28;20029;-65
2023/05/04 02:27:00;;;;;;;0.93;0.93;;;;;;;4.03;60.59;101721.66;5005476;28;20034;-66
2023/05/04 02:29:26;;;;;;;0.50;0.50;;;;;;;4.03;60.70;101731.94;5005453;28;20026;-65
2023/05/04 02:31:52;;;;;;;0.65;0.65;;;;;;;4.01;61.08;101732.69;5003814;28;20018;-66
2023/05/04 02:34:17;;;;;;;0.40;0.40;;;;;;;3.97;61.35;101732.56;5005173;28;20049;-64
2023/05/04 02:36:42;;;;;;;0.50;0.50;;;;;;;3.92;61.35;101723.78;5005199;28;20117;-65
2023/05/04 02:39:08;;;;;;;0.40;0.40;;;;;;;3.92;61.89;101728.94;5008283;28;20022;-65
2023/05/04 02:41:33;;;;;;;0.40;0.40;;;;;;;3.90;61.88;101727.97;5008743;28;20054;-66
2023/05/04 02:43:58;;;;;;;0.43;0.43;;;;;;;3.88;61.70;101734.78;5009061;28;20026;-65
2023/05/04 02:46:25;;;;;;;0.50;0.50;;;;;;;3.86;61.40;101733.81;5008778;28;20046;-66
2023/05/04 02:48:51;;;;;;;0.50;0.50;;;;;;;3.84;61.44;101736.34;5008547;28;20022;-65
2023/05/04 02:51:17;;;;;;;0.40;0.40;;;;;;;3.86;61.23;101738.06;5008731;28;20094;-65
2023/05/04 02:53:43;;;;;;;0.40;0.40;;;;;;;3.83;61.28;101741.41;5008631;28;20498;-66
2023/05/04 02:56:08;;;;;;;0.50;0.50;;;;;;;3.82;61.08;101734.50;5008656;28;20093;-67
2023/05/04 02:58:34;;;;;;;0.47;0.47;;;;;;;3.85;61.15;101744.91;5008471;28;20019;-66
2023/05/04 03:00:59;;;;;;;0.40;0.40;;;;;;;3.74;61.14;101725.63;5008750;28;20033;-66
2023/05/04 03:03:25;;;;;;;0.40;0.40;;;;;;;3.82;61.35;101739.63;5008741;28;20034;-66
2023/05/04 03:05:50;;;;;;;0.40;0.40;;;;;;;3.77;61.20;101739.44;5008582;28;20030;-66
2023/05/04 03:08:16;;;;;;;0.40;0.40;;;;;;;3.79;61.37;101745.53;5008394;28;20032;-65
2023/05/04 03:10:41;;;;;;;0.40;0.40;;;;;;;3.66;61.60;101728.72;5008482;28;20048;-67
2023/05/04 03:13:06;;;;;;;0.50;0.50;;;;;;;3.70;61.72;101742.59;5008347;28;20031;-66
2023/05/04 03:15:32;;;;;;;0.70;0.70;;;;;;;3.75;61.68;101747.91;5008182;28;20438;-66
2023/05/04 03:17:58;;;;;;;0.50;0.50;;;;;;;3.78;61.98;101750.59;5008150;28;20026;-66
2023/05/04 03:20:23;;;;;;;0.40;0.40;;;;;;;3.62;62.14;101726.88;5008085;28;20030;-65
2023/05/04 03:22:49;;;;;;;0.50;0.50;;;;;;;3.74;62.26;101738.47;5008242;28;20026;-65
2023/05/04 03:25:15;;;;;;;0.50;0.50;;;;;;;3.76;62.63;101752.22;5007881;28;20026;-66
2023/05/04 03:27:40;;;;;;;0.40;0.40;;;;;;;3.81;62.80;101755.88;5008319;28;20037;-66
2023/05/04 03:30:06;;;;;;;0.50;0.50;;;;;;;3.81;62.95;101761.91;5008028;28;20054;-65
2023/05/04 03:32:32;;;;;;;0.50;0.50;;;;;;;3.81;62.90;101767.03;5007757;28;20116;-65
2023/05/04 03:34:57;;;;;;;0.40;0.40;;;;;;;3.86;63.29;101763.75;5008322;28;20023;-66
2023/05/04 03:37:23;;;;;;;0.60;0.60;;;;;;;4.03;63.28;101769.59;5007889;28;20538;-65
2023/05/04 03:39:48;;;;;;;0.50;0.50;;;;;;;4.27;63.52;101761.09;5007783;28;20018;-65
2023/05/04 03:42:14;;;;;;;0.50;0.50;;;;;;;4.50;63.26;101763.72;5007680;28;20129;-65
2023/05/04 03:44:40;;;;;;;0.40;0.40;;;;;;;4.73;62.93;101768.88;5007649;28;20026;-65
2023/05/04 03:47:05;;;;;;;0.50;0.50;;;;;;;4.93;62.94;101765.34;5007597;28;20026;-66
2023/05/04 03:49:32;;;;;;;0.50;0.50;;;;;;;5.18;62.09;101763.66;5006587;28;20113;-65
2023/05/04 03:51:58;;;;;;;0.47;0.47;;;;;;;5.32;61.52;101769.28;5007729;28;20058;-65
2023/05/04 03:54:23;;;;;;;0.40;0.40;;;;;;;5.54;61.24;101764.03;5007459;28;20025;-66
2023/05/04 03:56:48;;;;;;;0.50;0.50;;;;;;;5.76;60.49;101768.22;5007471;28;20022;-65
2023/05/04 03:59:14;;;;;;;0.50;0.50;;;;;;;5.96;59.75;101770.56;5007384;28;20044;-65
2023/05/04 04:01:40;;;;;;;0.40;0.40;;;;;;;6.15;58.81;101764.31;5007491;28;20034;-66
2023/05/04 04:04:05;;;;;;;0.40;0.40;;;;;;;6.37;58.36;101767.59;5007425;28;20490;-65
2023/05/04 04:06:31;;;;;;;0.40;0.40;;;;;;;6.46;56.51;101777.31;5007308;28;20107;-66
2023/05/04 04:08:56;;;;;;;0.50;0.50;;;;;;;6.38;55.69;101773.63;5005890;28;20086;-66
2023/05/04 04:11:22;;;;;;;0.50;0.50;;;;;;;6.34;54.30;101777.81;5005457;28;20022;-66
2023/05/04 04:13:47;;;;;;;0.40;0.40;;;;;;;6.11;54.51;101761.59;5007296;28;20049;-66
2023/05/04 04:16:12;;;;;;;0.40;0.40;;;;;;;6.03;54.24;101784.53;5005768;28;20029;-66
2023/05/04 04:18:38;;;;;;;0.40;0.40;;;;;;;6.03;53.87;101785.41;5007299;28;20018;-66
2023/05/04 04:21:03;;;;;;;0.50;0.50;;;;;;;5.99;53.36;101772.38;5007215;28;20098;-66
2023/05/04 04:23:29;;;;;;;0.40;0.40;;;;;;;5.94;53.47;101782.53;5006989;28;20082;-66
2023/05/04 04:25:54;;;;;;;0.40;0.40;;;;;;;5.95;52.79;101781.69;5007026;28;20029;-65
2023/05/04 04:28:20;;;;;;;0.40;0.40;;;;;;;5.95;51.85;101784.28;5007030;28;20026;-66
2023/05/04 04:30:45;;;;;;;0.50;0.50;;;;;;;5.96;51.02;101775.72;5007071;28;20413;-66
2023/05/04 04:33:11;;;;;;;0.40;0.40;;;;;;;5.90;50.77;101773.81;5006856;28;20030;-65
2023/05/04 04:35:36;;;;;;;0.40;0.40;;;;;;;5.93;50.41;101784.22;5005514;28;20161;-66
2023/05/04 04:38:02;;;;;;;0.40;0.40;;;;;;;5.99;49.76;101780.97;5005490;28;20018;-65
2023/05/04 04:40:27;;;;;;;0.40;0.40;;;;;;;6.20;48.32;101777.38;5006471;28;20053;-65
2023/05/04 04:42:53;;;;;;;0.40;0.40;;;;;;;6.33;48.05;101778.63;5006940;28;20057;-66
2023/05/04 04:45:19;;;;;;;0.40;0.40;;;;;;;6.51;46.87;101787.78;5006491;28;20022;-65
2023/05/04 04:47:44;;;;;;;0.50;0.50;;;;;;;6.55;46.67;101793.06;5006551;28;20086;-65
2023/05/04 04:50:10;;;;;;;0.50;0.50;;;;;;;6.53;47.08;101783.53;5006489;28;20082;-66
2023/05/04 04:52:37;;;;;;;0.50;0.50;;;;;;;6.74;46.71;101800.50;5006621;28;20045;-65
2023/05/04 04:55:03;;;;;;;0.40;0.40;;;;;;;6.93;46.91;101782.13;5006462;28;20099;-65
2023/05/04 04:57:29;;;;;;;0.47;0.47;;;;;;;7.17;46.11;101781.09;5005424;28;20026;-65
2023/05/04 04:59:54;;;;;;;0.40;0.40;;;;;;;7.25;45.75;101788.19;5006487;28;20018;-66
2023/05/04 05:02:20;;;;;;;0.40;0.40;;;;;;;7.34;45.30;101782.38;5006420;28;20026;-65
2023/05/04 05:04:45;;;;;;;0.40;0.40;;;;;;;7.40;45.47;101788.59;5006338;28;20041;-65
2023/05/04 05:07:11;;;;;;;0.40;0.40;;;;;;;7.60;45.83;101788.28;5006241;28;20109;-65
2023/05/04 05:09:37;;;;;;;0.40;0.40;;;;;;;8.02;45.18;101802.22;5006237;28;20029;-65
2023/05/04 05:12:04;;;;;;;0.50;0.50;;;;;;;8.51;44.52;101803.38;5006206;28;20080;-66
2023/05/04 05:14:30;;;;;;;0.50;0.50;;;;;;;8.89;43.87;101798.19;5006340;28;20052;-65
2023/05/04 05:16:56;;;;;;;0.50;0.50;;;;;;;9.16;41.96;101793.53;5006278;28;20137;-65
2023/05/04 05:19:22;;;;;;;0.30;0.30;;;;;;;9.14;42.30;101798.69;5006142;28;20410;-65
2023/05/04 05:21:48;;;;;;;0.40;0.40;;;;;;;9.07;42.55;101804.59;5006270;28;20018;-66
2023/05/04 05:24:14;;;;;;;0.40;0.40;;;;;;;8.91;42.63;101798.22;5004600;28;20049;-65
2023/05/04 05:26:40;;;;;;;0.43;0.43;;;;;;;8.95;42.13;101794.84;5006092;28;20029;-66
2023/05/04 05:29:05;;;;;;;0.40;0.40;;;;;;;8.90;41.49;101794.75;5005943;28;20030;-65
2023/05/04 05:31:31;;;;;;;0.40;0.40;;;;;;;8.91;41.28;101788.72;5006104;28;20022;-66
2023/05/04 05:33:57;;;;;;;0.40;0.40;;;;;;;8.91;41.66;101806.84;5006069;28;20050;-65
2023/05/04 05:36:22;;;;;;;0.45;0.45;;;;;;;9.10;40.88;101794.31;5005946;28;20022;-65
2023/05/04 05:38:48;;;;;;;0.40;0.40;;;;;;;9.15;40.21;101769.34;5005813;28;20026;-65
2023/05/04 05:41:14;;;;;;;0.40;0.40;;;;;;;9.35;39.78;101775.75;5005520;28;20449;-65
2023/05/04 05:43:40;;;;;;;0.40;0.40;;;;;;;9.35;38.86;101779.22;5005732;28;20018;-65
2023/05/04 05:46:05;;;;;;;0.40;0.40;;;;;;;9.07;38.89;101778.69;5005712;28;20023;-65
2023/05/04 05:48:31;;;;;;;0.45;0.45;;;;;;;9.07;39.35;101781.28;5005705;28;20085;-65
2023/05/04 05:50:56;;;;;;;0.30;0.30;;;;;;;9.32;38.60;101779.16;5004317;28;20030;-65
2023/05/04 05:53:22;;;;;;;0.40;0.40;;;;;;;9.24;38.28;101768.66;5005838;28;20057;-65
2023/05/04 05:55:47;;;;;;;0.40;0.40;;;;;;;9.40;36.69;101781.91;5005638;28;20066;-65
2023/05/04 05:58:13;;;;;;;0.40;0.40;;;;;;;8.92;36.81;101759.41;5004040;28;20023;-64
2023/05/04 06:00:38;;;;;;;0.40;0.40;;;;;;;8.89;36.37;101774.00;5005559;28;20022;-62
2023/05/04 06:03:05;;;;;;;0.40;0.40;;;;;;;8.79;36.17;101791.94;5005544;28;20046;-62
2023/05/04 06:05:33;;;;;;;0.40;0.40;;;;;;;8.57;37.37;101782.84;5005457;28;20086;-61
2023/05/04 06:07:58;;;;;;;0.40;0.40;;;;;;;8.68;37.13;101786.53;5005502;28;20478;-62
2023/05/04 06:10:23;;;;;;;0.60;0.60;;;;;;;8.70;37.15;101790.88;5005479;28;20061;-61
2023/05/04 06:12:49;;;;;;;0.40;0.40;;;;;;;8.63;36.87;101775.19;5006781;28;20049;-62
2023/05/04 06:15:15;;;;;;;0.40;0.40;;;;;;;8.46;37.41;101768.75;5008383;28;20030;-62
2023/05/04 06:17:41;;;;;;;0.40;0.40;;;;;;;8.53;37.98;101766.31;5009325;28;20025;-61
2023/05/04 06:20:07;;;;;;;0.50;0.50;;;;;;;8.76;37.91;101783.22;5009622;28;20455;-61
2023/05/04 06:22:33;;;;;;;0.40;0.40;;;;;;;9.01;37.88;101794.13;5009463;28;20034;-61
2023/05/04 06:24:58;;;;;;;0.50;0.50;;;;;;;9.28;37.13;101778.22;5009347;28;20034;-62
2023/05/04 06:27:24;;;;;;;0.40;0.40;;;;;;;9.55;37.45;101800.31;5009164;28;20417;-60
2023/05/04 06:29:50;;;;;;;0.40;0.40;;;;;;;9.80;36.97;101792.13;5007880;28;20061;-62
2023/05/04 06:32:16;;;;;;;0.40;0.40;;;;;;;10.05;36.02;101795.09;5009146;28;20037;-60
2023/05/04 06:34:41;;;;;;;0.35;0.35;;;;;;;10.33;35.12;101782.56;5009272;28;20023;-61
2023/05/04 06:37:07;;;;;;;0.40;0.40;;;;;;;10.34;34.01;101796.41;5009180;28;20037;-61
2023/05/04 06:39:33;;;;;;;0.40;0.40;;;;;;;10.25;34.74;101813.63;5007792;28;20029;-62
2023/05/04 06:41:58;;;;;;;0.40;0.40;;;;;;;10.23;33.72;101791.06;5008955;28;20050;-61
2023/05/04 06:44:24;;;;;;;0.40;0.40;;;;;;;10.37;33.47;101794.75;5009107;28;20046;-61
2023/05/04 06:46:50;;;;;;;0.40;0.40;;;;;;;10.56;33.90;101821.00;5008934;28;20041;-61
2023/05/04 06:49:16;;;;;;;0.40;0.40;;;;;;;10.76;33.51;101802.22;5009006;28;20030;-61
2023/05/04 06:51:42;;;;;;;0.40;0.40;;;;;;;11.01;32.18;101802.53;5009054;28;20046;-60
2023/05/04 06:54:08;;;;;;;0.40;0.40;;;;;;;10.62;33.21;101799.44;5009036;28;20037;-60
2023/05/04 06:56:33;;;;;;;0.40;0.40;;;;;;;10.55;33.39;101788.09;5008788;28;20029;-61
2023/05/04 06:58:58;;;;;;;0.40;0.40;;;;;;;10.50;33.80;101800.13;5008923;28;20124;-60
2023/05/04 07:01:24;;;;;;;0.40;0.40;;;;;;;10.57;34.19;101793.31;5008956;28;20034;-61
2023/05/04 07:03:49;;;;;;;0.52;0.52;;;;;;;10.74;34.17;101801.34;5008822;28;20049;-61
2023/05/04 07:06:15;;;;;;;0.30;0.30;;;;;;;10.93;33.68;101797.25;5008704;28;20018;-60
2023/05/04 07:08:40;;;;;;;0.40;0.40;;;;;;;10.94;33.56;101800.72;5008692;28;20505;-61
2023/05/04 07:11:08;;;;;;;0.40;0.40;;;;;;;10.90;33.64;101803.28;5008668;28;20113;-61
2023/05/04 07:13:33;;;;;;;0.40;0.40;;;;;;;10.88;33.84;101810.19;5008777;28;20030;-60
2023/05/04 07:15:58;;;;;;;0.40;0.40;;;;;;;10.91;33.70;101810.22;5008718;28;20109;-60
2023/05/04 07:18:24;;;;;;;0.40;0.40;;;;;;;10.99;33.98;101810.31;5008421;28;20077;-62
2023/05/04 07:20:49;;;;;;;0.50;0.50;;;;;;;10.97;34.08;101795.56;5008520;28;20483;-61
2023/05/04 07:23:15;;;;;;;0.40;0.40;;;;;;;11.09;34.16;101811.31;5008701;28;20018;-61
2023/05/04 07:25:41;;;;;;;0.30;0.30;;;;;;;11.01;34.15;101798.22;5006828;28;20385;-61
2023/05/04 07:28:07;;;;;;;0.40;0.40;;;;;;;11.09;33.78;101797.44;5015130;23;20046;-71
2023/05/04 07:30:32;;;;;;;0.40;0.40;;;;;;;11.08;34.02;101808.69;4990590;28;20018;-69
2023/05/04 07:32:57;;;;;;;0.40;0.40;;;;;;;11.08;34.19;101803.50;5008056;28;20033;-70
2023/05/04 07:35:23;;;;;;;0.40;0.40;;;;;;;11.42;34.51;101810.81;5008141;28;20382;-70
2023/05/04 07:37:49;;;;;;;0.40;0.40;;;;;;;11.78;34.31;101805.09;5008091;28;20027;-71
2023/05/04 07:40:15;;;;;;;0.40;0.40;;;;;;;12.24;33.60;101808.09;5008175;28;20038;-70
2023/05/04 07:42:41;;;;;;;0.32;0.32;;;;;;;12.59;32.91;101812.66;5007936;28;20037;-70
2023/05/04 07:45:07;;;;;;;0.40;0.40;;;;;;;12.90;32.94;101809.34;4990566;28;20084;-70
2023/05/04 07:47:33;;;;;;;0.38;0.38;;;;;;;13.10;31.70;101798.97;5007979;28;20054;-69
2023/05/04 07:49:58;;;;;;;0.30;0.30;;;;;;;13.05;32.71;101810.28;5007814;28;20045;-69
2023/05/04 07:52:24;;;;;;;0.40;0.40;;;;;;;13.29;32.05;101809.47;5007690;28;20474;-69
2023/05/04 07:54:53;;;;;;;0.35;0.35;;;;;;;13.14;32.27;101816.41;5007714;28;20022;-69
2023/05/04 07:57:19;;;;;;;1.27;1.25;;;;;;;13.04;31.89;101811.13;5007552;28;20098;-70
2023/05/04 07:59:45;;;;;;;0.20;0.20;;;;;;;13.16;32.30;101807.69;5007877;28;20037;-70
2023/05/04 08:02:10;;;;;;;0.30;0.30;;;;;;;13.17;32.12;101799.00;5007570;28;20027;-70
2023/05/04 08:04:35;;;;;;;0.40;0.40;;;;;;;13.32;31.49;101804.25;5007716;28;20046;-70
2023/05/04 08:07:01;;;;;;;0.32;0.32;;;;;;;13.48;31.96;101804.31;5007243;28;20605;-68
2023/05/04 08:09:26;;;;;;;0.30;0.30;;;;;;;13.43;31.42;101800.81;5007383;28;20089;-69
2023/05/04 08:11:52;;;;;;;0.30;0.30;;;;;;;13.27;31.78;101806.00;5007151;28;20086;-70
2023/05/04 08:14:17;;;;;;;0.40;0.40;;;;;;;13.05;31.25;101810.28;4989888;28;20046;-69
2023/05/04 08:16:43;;;;;;;0.40;0.40;;;;;;;12.71;31.70;101806.66;5007374;28;20026;-69
2023/05/04 08:19:08;;;;;;;0.30;0.30;;;;;;;12.87;30.54;101812.81;4989792;28;20081;-69
2023/05/04 08:21:34;;;;;;;0.30;0.30;;;;;;;12.70;29.85;101814.47;5007450;28;20049;-71
2023/05/04 08:24:00;;;;;;;0.30;0.30;;;;;;;12.36;30.10;101809.91;4989714;28;20050;-69
2023/05/04 08:26:25;;;;;;;0.30;0.30;;;;;;;12.36;29.99;101810.75;5007058;28;20096;-69
2023/05/04 08:28:51;;;;;;;0.40;0.40;;;;;;;12.38;29.35;101826.44;5007165;28;20352;-70
2023/05/04 08:31:20;;;;;;;0.30;0.30;;;;;;;12.08;29.15;101810.56;5007122;28;20030;-70
2023/05/04 08:33:45;;;;;;;0.40;0.40;;;;;;;11.83;29.64;101793.84;5007040;28;20022;-70
2023/05/04 08:36:11;;;;;;;0.40;0.40;;;;;;;11.88;29.69;101826.00;5006884;28;20041;-70
2023/05/04 08:38:36;;;;;;;0.30;0.30;;;;;;;11.68;29.64;101818.00;5007118;28;20060;-70
2023/05/04 08:41:03;;;;;;;0.30;0.30;;;;;;;11.61;29.77;101825.72;4989297;28;20504;-69
2023/05/04 08:43:28;;;;;;;0.40;0.40;;;;;;;11.48;30.52;101808.28;5006988;28;20472;-70
2023/05/04 08:45:54;;;;;;;0.40;0.40;;;;;;;11.60;30.55;101812.72;5006865;28;20275;-69
2023/05/04 08:48:21;;;;;;;0.40;0.40;;;;;;;12.04;30.02;101816.59;5006815;28;20027;-70
2023/05/04 08:50:47;;;;;;;0.30;0.30;;;;;;;12.29;28.85;101831.53;5006861;28;20018;-70
2023/05/04 08:53:15;;;;;;;0.30;0.30;;;;;;;12.26;28.98;101819.38;4989182;28;20034;-71
2023/05/04 08:55:42;;;;;;;0.30;0.30;;;;;;;12.49;28.29;101814.31;4989018;28;20190;-70
2023/05/04 08:58:10;;;;;;;0.30;0.30;;;;;;;12.60;28.53;101823.97;5006902;28;20018;-70
2023/05/04 09:00:40;;;;;;;0.30;0.30;;;;;;;12.42;28.61;101822.09;4989143;28;20433;-70
2023/05/04 09:03:09;;;;;;;0.40;0.40;;;;;;;12.30;28.91;101823.75;4988952;28;20026;-70
2023/05/04 09:05:35;;;;;;;0.40;0.40;;;;;;;12.19;28.56;101823.66;5006579;28;20022;-70
2023/05/04 09:08:01;;;;;;;0.40;0.40;;;;;;;12.02;28.69;101826.13;5006360;28;20076;-70
2023/05/04 09:10:26;;;;;;;0.40;0.40;;;;;;;11.85;28.90;101829.44;4988910;28;20026;-70
2023/05/04 09:12:53;;;;;;;0.40;0.40;;;;;;;12.01;29.14;101824.38;4988733;28;20030;-69
2023/05/04 09:15:19;;;;;;;0.40;0.40;;;;;;;12.22;28.73;101818.47;4988708;28;20029;-69
2023/05/04 09:18:01;;;;;;;0.30;0.30;;;;;;;12.80;28.96;101837.09;5006471;28;20100;-70
2023/05/04 09:20:27;;;;;;;0.30;0.30;;;;;;;13.50;28.21;101823.44;5006377;28;20022;-70
2023/05/04 09:23:07;;;;;;;0.30;0.30;;;;;;;14.08;27.19;101818.28;5006434;28;20054;-70
2023/05/04 09:25:52;;;;;;;0.30;0.30;;;;;;;14.15;26.48;101816.56;5006242;28;20022;-69
2023/05/04 09:28:20;;;;;;;0.30;0.30;;;;;;;14.18;26.77;101821.78;5005947;28;20094;-70
2023/05/04 09:30:47;;;;;;;0.30;0.30;;;;;;;14.00;27.16;101810.47;5006025;28;20022;-69
2023/05/04 09:33:15;;;;;;;0.30;0.30;;;;;;;13.85;26.64;101817.41;5006101;28;20146;-70
2023/05/04 09:35:43;;;;;;;0.32;0.32;;;;;;;13.67;27.21;101817.41;5006099;28;20054;-70
2023/05/04 09:38:08;;;;;;;0.30;0.30;;;;;;;13.86;27.50;101806.13;4988500;28;20029;-69
2023/05/04 09:40:36;;;;;;;0.30;0.30;;;;;;;14.03;27.41;101817.41;5005867;28;20022;-69
2023/05/04 09:43:02;;;;;;;0.30;0.30;;;;;;;13.98;27.02;101814.81;5005753;28;20026;-69
2023/05/04 09:45:43;;;;;;;0.30;0.30;;;;;;;14.46;27.20;101822.59;5005845;28;20029;-70
2023/05/04 09:48:19;;;;;;;0.40;0.40;;;;;;;15.28;26.56;101812.75;5004748;28;20049;-71
2023/05/04 09:50:56;;;;;;;0.30;0.30;;;;;;;15.93;26.02;101815.78;5005887;28;20071;-70
2023/05/04 09:53:32;;;;;;;0.30;0.30;;;;;;;16.23;25.09;101819.03;4988721;28;20049;-70
2023/05/04 09:56:10;;;;;;;0.30;0.30;;;;;;;16.15;25.00;101819.13;5005532;28;20018;-71
2023/05/04 09:58:36;;;;;;;0.30;0.30;;;;;;;15.90;25.20;101803.59;4988246;28;20010;-69
2023/05/04 10:01:02;;;;;;;0.30;0.30;;;;;;;15.86;25.09;101805.38;4988046;28;20061;-70
2023/05/04 10:03:28;;;;;;;0.35;0.35;;;;;;;15.62;24.95;101809.06;5005501;28;20029;-70
2023/05/04 10:05:54;;;;;;;0.30;0.30;;;;;;;15.18;25.51;101806.69;5005792;28;20049;-70
2023/05/04 10:08:20;;;;;;;0.30;0.30;;;;;;;14.87;25.42;101812.09;5005514;28;20482;-71
2023/05/04 10:10:45;;;;;;;0.30;0.30;;;;;;;14.38;25.63;101809.56;4988043;28;20026;-71
2023/05/04 10:13:11;;;;;;;0.30;0.30;;;;;;;13.99;26.24;101811.34;5005492;28;20510;-71
2023/05/04 10:16:08;;;;;;;0.30;0.30;;;;;;;14.24;26.09;101806.09;5005661;28;20030;-71
2023/05/04 10:19:11;;;;;;;0.30;0.30;;;;;;;15.38;26.32;101803.09;5005943;28;20105;-70
2023/05/04 10:21:55;;;;;;;0.30;0.30;;;;;;;16.37;25.19;101816.31;4987943;28;20381;-70
2023/05/04 10:24:39;;;;;;;0.25;0.25;;;;;;;16.84;23.80;101802.66;4988077;28;20126;-70
2023/05/04 10:27:11;;;;;;;0.30;0.30;;;;;;;16.92;23.70;101803.44;5005335;28;20022;-70
2023/05/04 10:29:37;;;;;;;0.40;0.40;;;;;;;16.94;23.80;101801.69;5005498;28;20110;-69
2023/05/04 10:32:03;;;;;;;0.28;0.28;;;;;;;17.45;22.71;101800.13;5005324;28;20037;-71
2023/05/04 10:34:30;;;;;;;0.30;0.30;;;;;;;17.40;23.01;101793.22;5005407;28;20023;-71
2023/05/04 10:36:57;;;;;;;0.20;0.20;;;;;;;17.42;23.30;101800.19;4987823;28;20018;-70
2023/05/04 10:39:25;;;;;;;0.20;0.20;;;;;;;17.34;22.24;101792.44;5005459;28;20370;-71
2023/05/04 10:42:00;;;;;;;0.30;0.30;;;;;;;16.98;22.55;101794.66;5005039;28;20022;-69
2023/05/04 10:44:31;;;;;;;0.30;0.30;;;;;;;16.70;22.75;101787.09;4987639;28;20018;-71
2023/05/04 10:46:57;;;;;;;0.30;0.30;;;;;;;16.62;23.53;101791.56;4987910;28;20053;-70
2023/05/04 10:49:22;;;;;;;0.30;0.30;;;;;;;16.60;22.90;101781.09;5005341;28;20082;-69
2023/05/04 10:51:48;;;;;;;0.20;0.20;;;;;;;16.32;23.56;101784.03;5005197;28;20050;-70
2023/05/04 10:54:19;;;;;;;0.30;0.30;;;;;;;16.15;23.40;101805.19;5005146;28;20038;-71
2023/05/04 10:56:45;;;;;;;0.40;0.40;;;;;;;16.08;23.08;101789.53;4987557;28;20050;-69
2023/05/04 10:59:11;;;;;;;0.30;0.30;;;;;;;15.93;22.93;101786.97;5006284;28;20356;-70
2023/05/04 11:01:43;;;;;;;0.30;0.30;;;;;;;15.61;23.91;101789.84;5008846;28;20037;-70
2023/05/04 11:04:21;;;;;;;0.30;0.30;;;;;;;14.97;24.07;101778.91;5008733;28;20377;-71
2023/05/04 11:07:16;;;;;;;0.30;0.30;;;;;;;14.34;24.63;101779.09;5008759;28;20081;-70
2023/05/04 11:09:43;;;;;;;0.30;0.30;;;;;;;13.80;24.81;101769.56;4995929;28;20046;-70
2023/05/04 11:12:09;;;;;;;0.30;0.30;;;;;;;13.48;25.62;101765.19;4990823;28;20470;-71
2023/05/04 11:14:41;;;;;;;0.30;0.30;;;;;;;13.38;25.80;101759.94;5008601;28;20030;-71
2023/05/04 11:17:14;;;;;;;0.40;0.40;;;;;;;13.33;25.62;101774.72;5008717;28;20046;-70
2023/05/04 11:19:51;;;;;;;0.30;0.30;;;;;;;13.25;25.88;101774.69;4990874;28;20026;-71
2023/05/04 11:22:17;;;;;;;0.30;0.30;;;;;;;12.96;26.29;101765.06;5008245;28;20030;-70
2023/05/04 11:24:44;;;;;;;0.30;0.30;;;;;;;12.79;26.29;101767.59;5008456;28;20038;-70
2023/05/04 11:27:29;;;;;;;0.30;0.30;;;;;;;12.74;26.48;101780.59;4990351;28;20094;-70